createdAt,value
2022-11-10T00:00:03.027Z,15.80
2022-11-10T00:01:03.019Z,15.80
2022-11-10T00:02:03.024Z,15.87
2022-11-10T00:03:03.023Z,15.82
2022-11-10T00:04:03.083Z,15.86
2022-11-10T00:05:03.020Z,15.92
2022-11-10T00:06:03.029Z,15.89
2022-11-10T00:07:03.029Z,15.90
2022-11-10T00:08:03.020Z,15.90
2022-11-10T00:09:03.020Z,15.93
2022-11-10T00:10:03.017Z,16.00
2022-11-10T00:11:03.022Z,16.02
2022-11-10T00:12:03.015Z,16.00
2022-11-10T00:13:03.008Z,15.90
2022-11-10T00:14:03.012Z,15.89
2022-11-10T00:15:03.046Z,15.92
2022-11-10T00:16:03.013Z,16.01
2022-11-10T00:17:03.019Z,15.92
2022-11-10T00:18:03.063Z,15.96
2022-11-10T00:19:03.018Z,15.97
2022-11-10T00:20:03.013Z,15.94
2022-11-10T00:21:03.015Z,16.02
2022-11-10T00:22:03.011Z,16.04
2022-11-10T00:23:03.022Z,16.02
2022-11-10T00:24:03.010Z,16.05
2022-11-10T00:25:03.008Z,16.02
2022-11-10T00:26:03.006Z,15.87
2022-11-10T00:27:03.009Z,15.92
2022-11-10T00:28:03.012Z,15.90
2022-11-10T00:29:02.999Z,15.87
2022-11-10T00:30:03.007Z,15.97
2022-11-10T00:31:03.035Z,15.89
2022-11-10T00:32:03.000Z,15.89
2022-11-10T00:33:02.999Z,15.84
2022-11-10T00:34:03.003Z,15.84
2022-11-10T00:35:03.005Z,15.86
2022-11-10T00:36:03.003Z,15.84
2022-11-10T00:37:02.999Z,15.87
2022-11-10T00:38:03.000Z,15.74
2022-11-10T00:39:02.997Z,15.71
2022-11-10T00:40:02.998Z,15.69
2022-11-10T00:41:02.998Z,15.86
2022-11-10T00:42:03.003Z,15.87
2022-11-10T00:43:02.999Z,15.92
2022-11-10T00:44:03.001Z,15.92
2022-11-10T00:45:02.994Z,15.90
2022-11-10T00:46:02.995Z,15.92
2022-11-10T00:47:03.014Z,16.02
2022-11-10T00:48:02.991Z,16.02
2022-11-10T00:49:02.999Z,15.93
2022-11-10T00:50:02.996Z,15.89
2022-11-10T00:51:02.997Z,15.86
2022-11-10T00:52:02.994Z,16.04
2022-11-10T00:53:02.988Z,16.07
2022-11-10T00:54:02.991Z,16.08
2022-11-10T00:55:02.992Z,16.12
2022-11-10T00:56:02.989Z,16.11
2022-11-10T00:57:02.995Z,16.24
2022-11-10T00:58:02.989Z,16.23
2022-11-10T00:59:02.982Z,16.23
2022-11-10T01:00:02.997Z,16.23
2022-11-10T01:01:03.094Z,16.23
2022-11-10T01:02:02.981Z,16.11
2022-11-10T01:03:03.008Z,16.11
2022-11-10T01:04:02.981Z,16.05
2022-11-10T01:05:02.982Z,16.17
2022-11-10T01:06:02.981Z,16.17
2022-11-10T01:07:03.021Z,16.07
2022-11-10T01:08:02.980Z,16.08
2022-11-10T01:09:02.990Z,16.08
2022-11-10T01:10:02.977Z,16.11
2022-11-10T01:11:02.983Z,16.17
2022-11-10T01:12:02.972Z,16.27
2022-11-10T01:13:02.988Z,16.24
2022-11-10T01:14:02.976Z,16.27
2022-11-10T01:15:02.975Z,16.25
2022-11-10T01:16:02.968Z,16.24
2022-11-10T01:17:02.978Z,16.15
2022-11-10T01:18:02.973Z,16.34
2022-11-10T01:19:03.396Z,16.33
2022-11-10T01:20:02.974Z,16.42
2022-11-10T01:21:02.964Z,16.39
2022-11-10T01:22:02.974Z,16.39
2022-11-10T01:23:02.974Z,16.27
2022-11-10T01:24:02.971Z,16.31
2022-11-10T01:25:02.973Z,16.34
2022-11-10T01:26:02.963Z,16.38
2022-11-10T01:27:02.970Z,16.41
2022-11-10T01:28:02.966Z,16.35
2022-11-10T01:29:02.968Z,16.34
2022-11-10T01:30:02.965Z,16.41
2022-11-10T01:31:02.968Z,16.46
2022-11-10T01:32:02.970Z,16.41
2022-11-10T01:33:02.967Z,16.34
2022-11-10T01:34:02.971Z,16.39
2022-11-10T01:35:02.985Z,16.31
2022-11-10T01:36:03.009Z,16.28
2022-11-10T01:37:02.970Z,16.25
2022-11-10T01:38:02.965Z,16.15
2022-11-10T01:39:02.963Z,16.28
2022-11-10T01:40:03.012Z,16.14
2022-11-10T01:41:02.957Z,16.23
2022-11-10T01:42:02.959Z,16.30
2022-11-10T01:43:02.961Z,16.35
2022-11-10T01:44:02.959Z,16.27
2022-11-10T01:45:02.957Z,16.35
2022-11-10T01:46:02.955Z,16.33
2022-11-10T01:47:02.957Z,16.27
2022-11-10T01:48:02.950Z,16.30
2022-11-10T01:49:02.954Z,16.34
2022-11-10T01:50:02.956Z,16.34
2022-11-10T01:51:02.974Z,16.31
2022-11-10T01:52:02.957Z,16.33
2022-11-10T01:53:02.950Z,16.23
2022-11-10T01:54:02.952Z,16.25
2022-11-10T01:55:02.958Z,16.15
2022-11-10T01:56:02.950Z,16.21
2022-11-10T01:57:02.964Z,16.09
2022-11-10T01:58:02.948Z,16.27
2022-11-10T01:59:02.956Z,16.21
2022-11-10T02:00:02.955Z,16.17
2022-11-10T02:01:02.969Z,15.97
2022-11-10T02:02:02.944Z,16.14
2022-11-10T02:03:02.954Z,16.07
2022-11-10T02:04:02.947Z,16.09
2022-11-10T02:05:02.944Z,16.30
2022-11-10T02:06:02.946Z,16.21
2022-11-10T02:07:03.032Z,16.35
2022-11-10T02:08:02.945Z,16.35
2022-11-10T02:09:02.943Z,16.39
2022-11-10T02:10:02.943Z,16.24
2022-11-10T02:11:02.939Z,16.15
2022-11-10T02:12:02.937Z,16.15
2022-11-10T02:13:02.944Z,16.09
2022-11-10T02:14:02.936Z,16.12
2022-11-10T02:15:02.939Z,16.04
2022-11-10T02:16:02.944Z,16.07
2022-11-10T02:17:02.941Z,16.20
2022-11-10T02:18:02.937Z,16.28
2022-11-10T02:19:02.930Z,16.24
2022-11-10T02:20:02.931Z,16.25
2022-11-10T02:21:02.936Z,16.20
2022-11-10T02:22:02.931Z,16.12
2022-11-10T02:23:02.949Z,16.07
2022-11-10T02:24:02.934Z,16.11
2022-11-10T02:25:02.992Z,16.04
2022-11-10T02:26:02.930Z,16.00
2022-11-10T02:27:02.927Z,16.04
2022-11-10T02:28:02.932Z,16.05
2022-11-10T02:29:02.922Z,16.02
2022-11-10T02:30:02.931Z,15.92
2022-11-10T02:31:02.934Z,15.96
2022-11-10T02:32:02.934Z,16.04
2022-11-10T02:33:02.936Z,15.92
2022-11-10T02:34:02.927Z,16.01
2022-11-10T02:35:02.927Z,15.94
2022-11-10T02:36:02.923Z,15.97
2022-11-10T02:37:02.930Z,16.09
2022-11-10T02:38:02.932Z,15.92
2022-11-10T02:39:02.949Z,15.97
2022-11-10T02:40:02.930Z,15.94
2022-11-10T02:41:02.922Z,15.86
2022-11-10T02:42:02.921Z,15.90
2022-11-10T02:43:02.921Z,15.93
2022-11-10T02:44:02.919Z,15.92
2022-11-10T02:45:02.922Z,15.86
2022-11-10T02:46:02.916Z,15.94
2022-11-10T02:47:02.916Z,15.94
2022-11-10T02:48:02.913Z,15.86
2022-11-10T02:49:02.913Z,15.87
2022-11-10T02:50:02.919Z,15.92
2022-11-10T02:51:02.918Z,15.84
2022-11-10T02:52:02.919Z,15.89
2022-11-10T02:54:02.911Z,15.92
2022-11-10T02:55:02.930Z,15.92
2022-11-10T02:56:02.908Z,16.01
2022-11-10T02:57:02.913Z,16.08
2022-11-10T02:58:02.917Z,16.00
2022-11-10T02:59:02.923Z,16.02
2022-11-10T03:00:02.912Z,15.97
2022-11-10T03:01:02.943Z,15.97
2022-11-10T03:02:02.912Z,15.84
2022-11-10T03:03:02.912Z,15.96
2022-11-10T03:04:02.906Z,15.92
2022-11-10T03:05:02.907Z,16.02
2022-11-10T03:06:02.904Z,16.09
2022-11-10T03:07:02.960Z,16.08
2022-11-10T03:08:02.908Z,16.08
2022-11-10T03:09:02.910Z,16.08
2022-11-10T03:10:02.901Z,16.24
2022-11-10T03:11:02.926Z,16.07
2022-11-10T03:12:02.892Z,16.05
2022-11-10T03:13:02.893Z,16.11
2022-11-10T03:14:03.039Z,16.11
2022-11-10T03:15:02.895Z,16.05
2022-11-10T03:16:02.941Z,15.96
2022-11-10T03:17:02.889Z,16.00
2022-11-10T03:18:02.919Z,16.02
2022-11-10T03:19:02.937Z,15.93
2022-11-10T03:20:02.892Z,15.94
2022-11-10T03:21:02.882Z,15.96
2022-11-10T03:22:02.889Z,16.04
2022-11-10T03:23:02.894Z,15.96
2022-11-10T03:24:02.892Z,15.94
2022-11-10T03:25:02.899Z,16.09
2022-11-10T03:26:02.890Z,16.08
2022-11-10T03:27:02.909Z,15.96
2022-11-10T03:28:02.886Z,16.05
2022-11-10T03:29:02.882Z,15.96
2022-11-10T03:30:02.896Z,16.02
2022-11-10T03:31:02.891Z,16.01
2022-11-10T03:32:02.887Z,16.04
2022-11-10T03:33:02.887Z,16.09
2022-11-10T03:34:02.879Z,16.11
2022-11-10T03:35:02.888Z,16.12
2022-11-10T03:36:02.882Z,16.09
2022-11-10T03:37:02.888Z,16.12
2022-11-10T03:38:02.887Z,16.11
2022-11-10T03:39:02.884Z,16.11
2022-11-10T03:40:02.890Z,16.00
2022-11-10T03:41:20.049Z,16.00
2022-11-10T03:42:02.897Z,15.97
2022-11-10T03:43:02.946Z,16.01
2022-11-10T03:44:02.920Z,16.01
2022-11-10T03:45:02.879Z,16.09
2022-11-10T03:46:02.941Z,16.02
2022-11-10T03:47:02.884Z,15.94
2022-11-10T03:48:02.875Z,15.90
2022-11-10T03:49:02.874Z,16.08
2022-11-10T03:50:02.872Z,16.09
2022-11-10T03:51:02.876Z,15.90
2022-11-10T03:52:02.872Z,16.00
2022-11-10T03:53:02.868Z,16.01
2022-11-10T03:54:02.882Z,15.97
2022-11-10T03:55:03.719Z,16.07
2022-11-10T04:00:30.350Z,16.00
2022-11-10T04:01:30.401Z,15.92
2022-11-10T04:02:30.324Z,15.93
2022-11-10T04:03:30.309Z,15.84
2022-11-10T04:04:30.318Z,15.96
2022-11-10T04:05:30.312Z,15.94
2022-11-10T04:06:30.430Z,15.97
2022-11-10T04:07:30.314Z,15.94
2022-11-10T04:08:30.314Z,15.89
2022-11-10T04:09:30.315Z,15.92
2022-11-10T04:10:30.307Z,16.00
2022-11-10T04:11:30.328Z,15.92
2022-11-10T04:12:30.312Z,15.93
2022-11-10T04:13:30.303Z,15.86
2022-11-10T04:14:30.307Z,15.78
2022-11-10T04:15:30.322Z,15.86
2022-11-10T04:16:30.324Z,15.71
2022-11-10T04:17:30.316Z,15.69
2022-11-10T04:18:30.328Z,15.72
2022-11-10T04:19:30.307Z,15.71
2022-11-10T04:20:30.303Z,15.83
2022-11-10T04:21:30.341Z,15.68
2022-11-10T04:22:30.304Z,15.65
2022-11-10T04:23:30.305Z,15.64
2022-11-10T04:24:30.305Z,15.56
2022-11-10T04:25:30.301Z,15.59
2022-11-10T04:26:30.317Z,15.59
2022-11-10T04:27:30.298Z,15.57
2022-11-10T04:28:30.297Z,15.75
2022-11-10T04:29:30.304Z,15.65
2022-11-10T04:30:30.298Z,15.75
2022-11-10T04:31:30.293Z,15.67
2022-11-10T04:32:30.325Z,15.68
2022-11-10T04:33:30.297Z,15.80
2022-11-10T04:34:30.296Z,15.76
2022-11-10T04:35:30.289Z,15.76
2022-11-10T04:36:30.307Z,15.75
2022-11-10T04:37:30.291Z,15.71
2022-11-10T04:38:30.292Z,15.78
2022-11-10T04:39:30.293Z,15.90
2022-11-10T04:40:30.291Z,15.84
2022-11-10T04:41:30.287Z,15.89
2022-11-10T04:42:30.291Z,15.89
2022-11-10T04:43:30.307Z,15.90
2022-11-10T04:44:30.300Z,15.94
2022-11-10T04:45:30.281Z,15.92
2022-11-10T04:46:30.293Z,15.89
2022-11-10T04:47:30.279Z,15.92
2022-11-10T04:48:30.310Z,15.89
2022-11-10T04:49:30.289Z,16.01
2022-11-10T04:50:30.289Z,16.01
2022-11-10T04:51:30.380Z,15.90
2022-11-10T04:52:30.281Z,15.90
2022-11-10T04:53:30.282Z,15.86
2022-11-10T04:54:30.281Z,15.90
2022-11-10T04:55:30.281Z,15.82
2022-11-10T04:56:30.282Z,15.82
2022-11-10T04:57:30.291Z,15.76
2022-11-10T04:58:30.282Z,15.75
2022-11-10T04:59:30.483Z,15.89
2022-11-10T05:00:30.456Z,15.57
2022-11-10T05:01:30.316Z,15.54
2022-11-10T05:02:30.270Z,15.60
2022-11-10T05:03:30.285Z,15.62
2022-11-10T05:04:30.298Z,15.60
2022-11-10T05:05:30.275Z,15.56
2022-11-10T05:06:30.363Z,15.51
2022-11-10T05:07:30.276Z,15.50
2022-11-10T05:08:30.277Z,15.56
2022-11-10T05:09:30.276Z,15.46
2022-11-10T05:10:30.265Z,15.49
2022-11-10T05:11:30.270Z,15.50
2022-11-10T05:12:30.267Z,15.36
2022-11-10T05:13:30.270Z,15.36
2022-11-10T05:14:30.269Z,15.46
2022-11-10T05:15:30.263Z,15.39
2022-11-10T05:16:30.279Z,15.28
2022-11-10T05:17:30.266Z,15.43
2022-11-10T05:18:30.266Z,15.44
2022-11-10T05:19:30.307Z,15.38
2022-11-10T05:20:30.287Z,15.46
2022-11-10T05:21:30.263Z,15.43
2022-11-10T05:22:30.283Z,15.27
2022-11-10T05:23:30.265Z,15.34
2022-11-10T05:24:30.254Z,15.31
2022-11-10T05:25:30.267Z,15.31
2022-11-10T05:26:30.254Z,15.31
2022-11-10T05:27:30.258Z,15.32
2022-11-10T05:28:30.258Z,15.32
2022-11-10T05:29:30.260Z,15.25
2022-11-10T05:30:30.277Z,15.25
2022-11-10T05:31:30.259Z,15.23
2022-11-10T05:32:30.251Z,15.25
2022-11-10T05:33:30.264Z,15.17
2022-11-10T05:34:30.256Z,15.16
2022-11-10T05:35:30.256Z,15.10
2022-11-10T05:36:30.284Z,15.17
2022-11-10T05:37:30.249Z,15.14
2022-11-10T05:38:30.250Z,15.09
2022-11-10T05:39:30.250Z,15.01
2022-11-10T05:40:30.249Z,15.11
2022-11-10T05:41:30.248Z,15.07
2022-11-10T05:42:30.245Z,14.99
2022-11-10T05:43:30.242Z,14.96
2022-11-10T05:44:30.248Z,15.02
2022-11-10T05:45:30.253Z,14.99
2022-11-10T05:46:30.245Z,15.02
2022-11-10T05:47:30.245Z,14.83
2022-11-10T05:48:30.242Z,14.84
2022-11-10T05:49:30.239Z,14.88
2022-11-10T05:50:30.248Z,14.83
2022-11-10T05:51:30.247Z,14.80
2022-11-10T05:52:30.256Z,14.78
2022-11-10T05:53:30.236Z,14.77
2022-11-10T05:54:30.245Z,14.75
2022-11-10T05:55:30.240Z,14.70
2022-11-10T05:56:30.236Z,14.70
2022-11-10T05:57:30.236Z,14.61
2022-11-10T05:58:30.234Z,14.64
2022-11-10T05:59:30.234Z,14.64
2022-11-10T06:00:30.235Z,14.69
2022-11-10T06:01:30.231Z,14.62
2022-11-10T06:02:30.233Z,14.61
2022-11-10T06:03:30.287Z,14.69
2022-11-10T06:04:30.236Z,14.51
2022-11-10T06:05:31.436Z,14.64
2022-11-10T06:06:30.351Z,14.54
2022-11-10T06:07:30.227Z,14.42
2022-11-10T06:08:30.255Z,14.42
2022-11-10T06:09:30.229Z,14.51
2022-11-10T06:10:30.233Z,14.52
2022-11-10T06:11:30.224Z,14.45
2022-11-10T06:12:30.227Z,14.42
2022-11-10T06:13:30.224Z,14.39
2022-11-10T06:14:30.221Z,14.36
2022-11-10T06:15:30.221Z,14.33
2022-11-10T06:16:30.225Z,14.27
2022-11-10T06:17:30.214Z,14.12
2022-11-10T06:18:30.220Z,14.17
2022-11-10T06:19:30.265Z,14.18
2022-11-10T06:20:30.221Z,14.14
2022-11-10T06:21:30.214Z,14.15
2022-11-10T06:22:30.216Z,14.22
2022-11-10T06:23:30.215Z,14.12
2022-11-10T06:24:30.235Z,14.17
2022-11-10T06:25:30.239Z,14.09
2022-11-10T06:26:30.206Z,14.09
2022-11-10T06:27:30.205Z,13.97
2022-11-10T06:28:30.210Z,14.02
2022-11-10T06:29:30.208Z,14.04
2022-11-10T06:30:30.201Z,13.99
2022-11-10T06:31:30.211Z,13.88
2022-11-10T06:32:30.201Z,13.92
2022-11-10T06:33:30.208Z,13.88
2022-11-10T06:34:30.198Z,13.97
2022-11-10T06:35:30.204Z,14.00
2022-11-10T06:36:30.195Z,13.95
2022-11-10T06:37:30.194Z,14.00
2022-11-10T06:38:30.196Z,14.06
2022-11-10T06:39:30.198Z,14.09
2022-11-10T06:40:30.214Z,13.97
2022-11-10T06:41:30.193Z,14.04
2022-11-10T06:42:30.192Z,14.03
2022-11-10T06:43:30.194Z,14.04
2022-11-10T06:44:30.194Z,14.04
2022-11-10T06:45:30.191Z,13.97
2022-11-10T06:46:30.190Z,13.99
2022-11-10T06:47:30.187Z,13.92
2022-11-10T06:48:30.193Z,13.95
2022-11-10T06:49:30.187Z,13.89
2022-11-10T06:50:30.188Z,13.95
2022-11-10T06:51:30.181Z,14.00
2022-11-10T06:52:30.234Z,13.91
2022-11-10T06:53:30.518Z,14.00
2022-11-10T06:54:30.181Z,14.00
2022-11-10T06:55:30.179Z,13.95
2022-11-10T06:56:30.249Z,13.96
2022-11-10T06:57:30.181Z,13.92
2022-11-10T06:58:30.180Z,13.84
2022-11-10T06:59:30.167Z,13.91
2022-11-10T07:00:30.288Z,13.92
2022-11-10T07:01:30.283Z,13.91
2022-11-10T07:02:30.173Z,13.99
2022-11-10T07:03:30.191Z,14.02
2022-11-10T07:04:30.166Z,14.03
2022-11-10T07:05:30.171Z,14.10
2022-11-10T07:06:30.241Z,14.09
2022-11-10T07:07:30.175Z,14.20
2022-11-10T07:08:30.169Z,14.21
2022-11-10T07:09:30.194Z,14.17
2022-11-10T07:10:30.175Z,14.10
2022-11-10T07:11:30.160Z,14.12
2022-11-10T07:12:30.203Z,14.20
2022-11-10T07:13:30.161Z,14.22
2022-11-10T07:14:30.160Z,14.14
2022-11-10T07:15:30.162Z,14.27
2022-11-10T07:16:30.161Z,14.28
2022-11-10T07:17:30.155Z,14.24
2022-11-10T07:18:30.151Z,14.33
2022-11-10T07:19:30.205Z,14.32
2022-11-10T07:20:30.156Z,14.37
2022-11-10T07:21:30.155Z,14.21
2022-11-10T07:22:30.150Z,14.33
2022-11-10T07:23:30.158Z,14.40
2022-11-10T07:24:30.152Z,14.39
2022-11-10T07:25:30.150Z,14.45
2022-11-10T07:26:30.186Z,14.60
2022-11-10T07:27:30.152Z,14.64
2022-11-10T07:28:30.173Z,14.69
2022-11-10T07:29:30.145Z,14.73
2022-11-10T07:30:30.139Z,14.75
2022-11-10T07:31:30.142Z,14.92
2022-11-10T07:32:30.146Z,14.99
2022-11-10T07:33:30.146Z,15.02
2022-11-10T07:34:30.145Z,15.21
2022-11-10T07:35:30.141Z,15.41
2022-11-10T07:36:30.144Z,15.46
2022-11-10T07:37:30.141Z,15.41
2022-11-10T07:38:30.140Z,15.56
2022-11-10T07:39:30.132Z,15.43
2022-11-10T07:40:30.134Z,15.46
2022-11-10T07:41:30.135Z,15.53
2022-11-10T07:42:30.135Z,15.50
2022-11-10T07:43:30.132Z,15.50
2022-11-10T07:44:30.170Z,15.60
2022-11-10T07:45:30.133Z,15.50
2022-11-10T07:46:30.133Z,15.47
2022-11-10T07:47:30.135Z,15.51
2022-11-10T07:48:30.134Z,15.57
2022-11-10T07:49:30.126Z,15.60
2022-11-10T07:50:30.131Z,15.64
2022-11-10T07:51:30.126Z,15.60
2022-11-10T07:52:30.129Z,15.54
2022-11-10T07:53:30.131Z,15.53
2022-11-10T07:54:30.123Z,15.46
2022-11-10T07:55:30.124Z,15.41
2022-11-10T07:56:30.125Z,15.31
2022-11-10T07:57:30.127Z,15.35
2022-11-10T07:58:30.128Z,15.43
2022-11-10T07:59:30.122Z,15.46
2022-11-10T08:00:30.145Z,15.47
2022-11-10T08:01:30.173Z,15.44
2022-11-10T08:02:30.118Z,15.49
2022-11-10T08:03:30.127Z,15.34
2022-11-10T08:04:30.119Z,15.35
2022-11-10T08:05:30.122Z,15.41
2022-11-10T08:06:34.887Z,15.47
2022-11-10T08:07:30.270Z,15.43
2022-11-10T08:08:30.115Z,15.49
2022-11-10T08:09:30.118Z,15.67
2022-11-10T08:10:30.161Z,15.75
2022-11-10T08:11:30.112Z,15.74
2022-11-10T08:12:33.656Z,15.72
2022-11-10T08:13:30.119Z,15.90
2022-11-10T08:14:30.114Z,15.89
2022-11-10T08:15:30.113Z,15.93
2022-11-10T08:16:30.131Z,16.01
2022-11-10T08:17:30.110Z,16.11
2022-11-10T08:18:35.049Z,16.21
2022-11-10T08:19:30.113Z,16.25
2022-11-10T08:20:30.214Z,16.23
2022-11-10T08:21:30.106Z,16.25
2022-11-10T08:22:30.107Z,16.15
2022-11-10T08:23:30.109Z,16.23
2022-11-10T08:24:30.101Z,16.21
2022-11-10T08:25:34.505Z,16.42
2022-11-10T08:26:30.214Z,16.38
2022-11-10T08:27:30.105Z,16.31
2022-11-10T08:28:30.101Z,16.39
2022-11-10T08:29:30.095Z,16.58
2022-11-10T08:30:30.144Z,16.58
2022-11-10T08:31:30.100Z,16.66
2022-11-10T08:32:30.127Z,16.70
2022-11-10T08:33:30.106Z,16.76
2022-11-10T08:34:30.098Z,16.86
2022-11-10T08:35:30.100Z,16.88
2022-11-10T08:36:30.101Z,16.89
2022-11-10T08:37:30.101Z,16.98
2022-11-10T08:38:30.095Z,17.03
2022-11-10T08:39:39.034Z,17.06
2022-11-10T08:40:30.119Z,17.14
2022-11-10T08:41:30.094Z,17.33
2022-11-10T08:42:30.095Z,17.18
2022-11-10T08:43:30.102Z,17.14
2022-11-10T08:44:30.089Z,17.23
2022-11-10T08:45:30.091Z,17.49
2022-11-10T08:46:30.088Z,17.52
2022-11-10T08:47:30.091Z,17.64
2022-11-10T08:48:30.106Z,17.74
2022-11-10T08:49:30.097Z,17.68
2022-11-10T08:50:30.086Z,17.64
2022-11-10T08:51:33.681Z,17.74
2022-11-10T08:52:30.086Z,17.68
2022-11-10T08:53:30.095Z,17.70
2022-11-10T08:54:30.093Z,17.97
2022-11-10T08:55:30.095Z,18.18
2022-11-10T08:56:30.098Z,18.12
2022-11-10T08:57:30.097Z,18.26
2022-11-10T08:58:30.093Z,18.48
2022-11-10T08:59:30.089Z,18.58
2022-11-10T09:00:30.103Z,18.63
2022-11-10T09:01:30.089Z,18.62
2022-11-10T09:02:30.091Z,18.39
2022-11-10T09:03:30.082Z,18.50
2022-11-10T09:04:30.188Z,18.66
2022-11-10T09:05:30.091Z,18.63
2022-11-10T09:06:30.079Z,18.60
2022-11-10T09:07:30.096Z,18.50
2022-11-10T09:08:30.087Z,18.48
2022-11-10T09:09:30.088Z,18.47
2022-11-10T09:10:30.082Z,18.50
2022-11-10T09:11:30.088Z,18.30
2022-11-10T09:12:30.086Z,18.45
2022-11-10T09:13:30.956Z,18.51
2022-11-10T09:14:30.086Z,18.48
2022-11-10T09:15:30.082Z,18.54
2022-11-10T09:16:30.090Z,18.58
2022-11-10T09:17:30.087Z,18.52
2022-11-10T09:18:30.089Z,18.50
2022-11-10T09:19:30.107Z,18.52
2022-11-10T09:20:30.111Z,18.50
2022-11-10T09:21:30.085Z,18.50
2022-11-10T09:22:30.079Z,18.32
2022-11-10T09:23:30.084Z,18.21
2022-11-10T09:24:31.472Z,18.35
2022-11-10T09:25:30.085Z,18.37
2022-11-10T09:26:30.082Z,18.44
2022-11-10T09:27:30.086Z,18.42
2022-11-10T09:28:30.080Z,18.54
2022-11-10T09:29:30.092Z,18.37
2022-11-10T09:30:30.081Z,18.32
2022-11-10T09:31:30.087Z,18.37
2022-11-10T09:32:30.093Z,18.23
2022-11-10T09:33:30.090Z,18.26
2022-11-10T09:34:30.082Z,18.23
2022-11-10T09:35:30.089Z,18.14
2022-11-10T09:36:30.112Z,18.25
2022-11-10T09:37:30.086Z,18.39
2022-11-10T09:38:30.087Z,18.41
2022-11-10T09:39:30.089Z,18.60
2022-11-10T09:40:30.087Z,18.57
2022-11-10T09:41:30.095Z,18.51
2022-11-10T09:42:30.087Z,18.52
2022-11-10T09:43:30.085Z,18.73
2022-11-10T09:44:30.088Z,18.95
2022-11-10T09:45:32.924Z,18.95
2022-11-10T09:46:30.092Z,19.19
2022-11-10T09:47:55.776Z,19.31
2022-11-10T09:48:30.086Z,19.26
2022-11-10T09:49:30.092Z,19.36
2022-11-10T09:50:30.091Z,19.32
2022-11-10T09:51:30.088Z,19.19
2022-11-10T09:52:30.112Z,19.19
2022-11-10T09:53:30.096Z,19.21
2022-11-10T09:54:30.095Z,19.29
2022-11-10T09:55:30.091Z,19.54
2022-11-10T09:56:30.091Z,19.71
2022-11-10T09:57:30.099Z,19.86
2022-11-10T09:58:30.090Z,19.94
2022-11-10T09:59:30.095Z,19.66
2022-11-10T10:00:30.093Z,19.73
2022-11-10T10:01:30.223Z,19.91
2022-11-10T10:02:30.089Z,19.95
2022-11-10T10:03:30.099Z,19.98
2022-11-10T10:04:30.097Z,20.05
2022-11-10T10:05:30.108Z,19.99
2022-11-10T10:06:43.691Z,20.02
2022-11-10T10:07:30.149Z,19.91
2022-11-10T10:08:30.134Z,19.94
2022-11-10T10:09:30.098Z,20.08
2022-11-10T10:10:30.105Z,20.28
2022-11-10T10:11:30.113Z,20.42
2022-11-10T10:12:30.102Z,20.51
2022-11-10T10:13:30.101Z,20.87
2022-11-10T10:14:30.109Z,20.91
2022-11-10T10:15:30.107Z,21.04
2022-11-10T10:16:30.110Z,21.12
2022-11-10T10:17:30.113Z,21.24
2022-11-10T10:18:30.110Z,21.22
2022-11-10T10:19:30.114Z,21.32
2022-11-10T10:20:30.117Z,21.46
2022-11-10T10:21:30.123Z,21.54
2022-11-10T10:22:30.112Z,21.49
2022-11-10T10:23:47.183Z,21.42
2022-11-10T10:24:30.145Z,21.42
2022-11-10T10:25:30.131Z,21.42
2022-11-10T10:26:30.121Z,21.88
2022-11-10T10:27:30.117Z,22.02
2022-11-10T10:28:30.123Z,21.91
2022-11-10T10:29:36.918Z,21.71
2022-11-10T10:30:30.164Z,21.92
2022-11-10T10:31:30.137Z,22.12
2022-11-10T10:32:30.137Z,21.88
2022-11-10T10:33:30.136Z,21.62
2022-11-10T10:34:30.161Z,21.74
2022-11-10T10:35:30.148Z,21.83
2022-11-10T10:36:30.151Z,21.90
2022-11-10T10:37:30.148Z,21.84
2022-11-10T10:38:30.150Z,21.80
2022-11-10T10:39:30.149Z,21.58
2022-11-10T10:40:30.176Z,21.75
2022-11-10T10:41:30.159Z,21.90
2022-11-10T10:42:30.167Z,21.94
2022-11-10T10:43:30.170Z,21.86
2022-11-10T10:44:30.177Z,21.92
2022-11-10T10:45:30.291Z,21.96
2022-11-10T10:46:34.443Z,22.03
2022-11-10T10:47:30.185Z,22.10
2022-11-10T10:48:30.185Z,21.94
2022-11-10T10:49:31.132Z,22.17
2022-11-10T10:50:30.200Z,22.39
2022-11-10T10:51:30.214Z,22.52
2022-11-10T10:52:30.218Z,22.73
2022-11-10T10:53:30.236Z,22.55
2022-11-10T10:54:30.226Z,22.22
2022-11-10T10:55:30.232Z,22.55
2022-11-10T10:56:30.264Z,22.80
2022-11-10T10:57:30.237Z,23.65
2022-11-10T10:58:30.252Z,23.75
2022-11-10T10:59:30.253Z,23.88
2022-11-10T11:00:30.255Z,23.69
2022-11-10T11:01:30.317Z,22.95
2022-11-10T11:02:30.270Z,22.21
2022-11-10T11:03:30.279Z,21.64
2022-11-10T11:04:30.290Z,21.27
2022-11-10T11:05:30.291Z,21.01
2022-11-10T11:06:30.451Z,20.87
2022-11-10T11:07:30.299Z,20.76
2022-11-10T11:08:30.312Z,20.32
2022-11-10T11:09:30.318Z,20.26
2022-11-10T11:10:30.327Z,20.32
2022-11-10T11:11:30.327Z,20.23
2022-11-10T11:12:30.368Z,20.01
2022-11-10T11:13:30.346Z,19.98
2022-11-10T11:14:30.341Z,19.95
2022-11-10T11:15:30.375Z,19.63
2022-11-10T11:16:30.354Z,19.51
2022-11-10T11:17:30.449Z,19.55
2022-11-10T11:18:30.370Z,19.77
2022-11-10T11:19:30.363Z,19.69
2022-11-10T11:20:30.367Z,19.91
2022-11-10T11:21:30.385Z,19.94
2022-11-10T11:22:30.375Z,19.86
2022-11-10T11:23:30.378Z,19.77
2022-11-10T11:24:30.434Z,19.69
2022-11-10T11:25:30.393Z,19.51
2022-11-10T11:26:30.393Z,19.50
2022-11-10T11:27:30.399Z,19.56
2022-11-10T11:28:30.427Z,19.99
2022-11-10T11:29:30.453Z,20.35
2022-11-10T11:30:30.419Z,20.43
2022-11-10T11:31:30.409Z,20.31
2022-11-10T11:32:30.418Z,20.29
2022-11-10T11:33:30.427Z,20.11
2022-11-10T11:34:30.420Z,19.95
2022-11-10T11:35:30.423Z,20.52
2022-11-10T11:36:30.422Z,20.33
2022-11-10T11:37:30.432Z,20.91
2022-11-10T11:38:30.444Z,20.89
2022-11-10T11:39:30.773Z,20.72
2022-11-10T11:40:30.432Z,20.28
2022-11-10T11:41:30.444Z,20.18
2022-11-10T11:42:30.442Z,20.14
2022-11-10T11:43:30.444Z,20.33
2022-11-10T11:44:30.492Z,20.51
2022-11-10T11:45:30.453Z,20.39
2022-11-10T11:46:30.456Z,20.24
2022-11-10T11:47:30.456Z,20.17
2022-11-10T11:48:30.454Z,20.20
2022-11-10T11:49:30.465Z,20.14
2022-11-10T11:50:30.459Z,20.47
2022-11-10T11:51:30.461Z,20.89
2022-11-10T11:52:30.461Z,21.64
2022-11-10T11:53:30.475Z,21.22
2022-11-10T11:54:30.470Z,21.06
2022-11-10T11:55:30.470Z,20.73
2022-11-10T11:56:30.472Z,20.05
2022-11-10T11:57:33.334Z,19.87
2022-11-10T11:58:30.478Z,19.91
2022-11-10T11:59:30.481Z,19.81
2022-11-10T12:00:30.508Z,19.73
2022-11-10T12:01:30.482Z,19.51
2022-11-10T12:02:30.506Z,19.66
2022-11-10T12:03:30.492Z,19.41
2022-11-10T12:04:30.492Z,19.43
2022-11-10T12:05:30.494Z,19.37
2022-11-10T12:06:30.586Z,19.32
2022-11-10T12:07:30.499Z,19.31
2022-11-10T12:08:30.497Z,19.41
2022-11-10T12:09:30.489Z,19.28
2022-11-10T12:10:30.491Z,19.48
2022-11-10T12:11:30.498Z,19.55
2022-11-10T12:12:30.507Z,19.61
2022-11-10T12:13:30.512Z,19.80
2022-11-10T12:14:30.502Z,19.91
2022-11-10T12:15:30.514Z,20.01
2022-11-10T12:16:30.531Z,20.32
2022-11-10T12:17:30.522Z,20.52
2022-11-10T12:18:30.510Z,20.57
2022-11-10T12:19:30.512Z,20.48
2022-11-10T12:20:30.588Z,20.55
2022-11-10T12:21:30.526Z,20.57
2022-11-10T12:22:30.515Z,20.48
2022-11-10T12:23:30.522Z,20.55
2022-11-10T12:24:30.572Z,20.52
2022-11-10T12:25:30.524Z,20.54
2022-11-10T12:26:30.532Z,20.50
2022-11-10T12:27:30.534Z,20.57
2022-11-10T12:28:30.535Z,20.42
2022-11-10T12:29:30.528Z,20.03
2022-11-10T12:30:30.530Z,20.01
2022-11-10T12:31:30.532Z,20.02
2022-11-10T12:32:30.566Z,19.87
2022-11-10T12:33:30.538Z,19.80
2022-11-10T12:34:30.533Z,19.74
2022-11-10T12:35:30.531Z,19.84
2022-11-10T12:36:30.540Z,19.63
2022-11-10T12:37:30.536Z,19.59
2022-11-10T12:38:30.540Z,19.62
2022-11-10T12:39:30.535Z,19.66
2022-11-10T12:40:30.544Z,19.83
2022-11-10T12:41:30.533Z,19.78
2022-11-10T12:42:30.543Z,19.71
2022-11-10T12:43:30.543Z,19.83
2022-11-10T12:44:30.547Z,19.68
2022-11-10T12:45:30.555Z,19.76
2022-11-10T12:46:30.553Z,19.83
2022-11-10T12:47:30.548Z,19.81
2022-11-10T12:48:30.576Z,19.77
2022-11-10T12:49:30.548Z,19.68
2022-11-10T12:50:30.551Z,19.65
2022-11-10T12:51:30.547Z,19.63
2022-11-10T12:52:30.561Z,19.56
2022-11-10T12:53:30.550Z,19.65
2022-11-10T12:54:30.580Z,19.71
2022-11-10T12:55:30.550Z,19.63
2022-11-10T12:56:30.560Z,19.73
2022-11-10T12:57:30.556Z,19.77